Kangerlussuaq

KL  EN  DA
ASIAQ
Weather Now GREENLAND SURVEY
Updated [WGT/WGST] Temperature [°C] Wind [m/s] Air pressure [hPa] Relative humidity [%] Precipitation [mm]
Present Wind chill Speed Max
30.11 16:00-12,0-19,14,1 ⇙4,899786n/a
30.11 15:00-12,2-19,03,7 ⇐4,899685n/a
30.11 14:00-12,2-18,63,4 ⇐4,699781n/a
30.11 13:00-12,1-18,43,3 ⇙4,599772n/a
30.11 12:00-12,0-19,44,4 ⇐5,799764n/a
30.11 11:00-12,3-19,84,4 ⇙5,499860n/a
30.11 10:00-13,2-20,43,9 ⇙5,099956n/a
30.11 09:00-12,2-19,74,5 ⇙5,3100055n/a
30.11 08:00-10,9-18,54,9 ⇙6,0100054n/a
30.11 07:00-9,6-16,34,2 ⇙5,4100153n/a
30.11 06:00-8,6-16,25,7 ⇙7,0100157n/a
30.11 05:00-7,3-14,86,2 ⇙8,1100257n/a
30.11 04:00-6,9-13,34,7 ⇙7,1100262n/a
30.11 03:00-6,6-12,23,8 ⇙4,6100265n/a
30.11 02:00-5,5-11,54,6 ⇙5,4100263n/a
30.11 01:00-5,4-11,14,2 ⇙5,1100368n/a
30.11 00:00-4,2-9,44,0 ⇐5,0100363n/a
29.11 23:00-3,1-8,24,2 ⇐5,5100360n/a
29.11 22:00-1,8-5,22,5 ⇙3,9100352n/a
29.11 21:00-2,0-7,04,4 ⇙6,4100354n/a
29.11 20:00-1,4-5,73,6 ⇐9,7100352n/a
29.11 19:00-2,4-5,52,2 ⇓4,0100357n/a
29.11 18:00-1,8-5,93,3 ⇑7,4100356n/a
29.11 17:00-1,5-6,95,2 ⇑9,6100255n/a
29.11 16:00-1,4-8,38,5 ⇑12,5100255n/a
Position: (67.013333333333,-50.72712222)

[Back]